Time;durP1;ratioP1;P1;durP2;ratioP2;P2;SDS_P1;SDS_P2;PMS_P1;PMS_P2;Temp;Humidity;BMP_temperature;BMP_pressure;BME280_temperature;BME280_humidity;BME280_pressure;Samples;Min_cycle;Max_cycle;Signal;HPM_P1;HPM_P2
2021/06/20 00:00:35;;;;;;;2.20;2.00;;;21.10;99.90;;;;;;4936922;29;20030;-76
2021/06/20 00:03:02;;;;;;;5.07;1.80;;;21.00;99.90;;;;;;4933993;29;20019;-79
2021/06/20 00:05:36;;;;;;;1.40;1.30;;;21.10;99.90;;;;;;4934148;29;20044;-79
2021/06/20 00:08:05;;;;;;;1.33;1.25;;;21.00;99.90;;;;;;4933148;29;20028;-77
2021/06/20 00:10:33;;;;;;;1.00;1.00;;;21.10;99.90;;;;;;4916952;29;20035;-79
2021/06/20 00:13:00;;;;;;;1.08;1.08;;;21.10;99.90;;;;;;4933784;29;20020;-80
2021/06/20 00:15:29;;;;;;;2.33;2.08;;;21.10;99.90;;;;;;4916448;29;20122;-82
2021/06/20 00:17:55;;;;;;;3.88;2.03;;;20.90;99.90;;;;;;4935894;29;20070;-79
2021/06/20 00:20:23;;;;;;;1.85;1.75;;;20.80;99.90;;;;;;4927608;28;20056;-80
2021/06/20 00:22:49;;;;;;;1.40;1.30;;;20.60;99.90;;;;;;4959924;28;20031;-80
2021/06/20 00:25:16;;;;;;;1.05;1.05;;;20.50;99.90;;;;;;4944067;28;20496;-81
2021/06/20 00:27:42;;;;;;;1.67;1.58;;;20.60;99.90;;;;;;4938183;29;20039;-81
2021/06/20 00:30:11;;;;;;;1.92;1.83;;;20.70;99.90;;;;;;4940639;29;20027;-80
2021/06/20 00:32:37;;;;;;;2.78;2.58;;;20.80;99.90;;;;;;4952592;29;20065;-76
2021/06/20 00:35:05;;;;;;;1.95;1.83;;;20.90;99.90;;;;;;4946617;28;20079;-77
2021/06/20 00:37:31;;;;;;;3.30;2.42;;;20.90;99.90;;;;;;4929557;29;20118;-79
2021/06/20 00:39:57;;;;;;;5.47;3.33;;;20.80;99.90;;;;;;4932011;29;20032;-80
2021/06/20 00:42:22;;;;;;;1.00;1.00;;;20.70;99.90;;;;;;4934984;29;20392;-81
2021/06/20 00:44:50;;;;;;;1.92;1.63;;;20.70;99.90;;;;;;4934836;29;20070;-82
2021/06/20 00:47:17;;;;;;;2.45;2.25;;;20.70;99.90;;;;;;4935549;29;20034;-82
2021/06/20 00:49:43;;;;;;;1.05;1.05;;;20.70;99.90;;;;;;4952711;29;20380;-83
2021/06/20 00:52:09;;;;;;;2.90;1.88;;;20.60;99.90;;;;;;4952277;29;20487;-82
2021/06/20 00:54:35;;;;;;;3.80;2.55;;;20.60;99.90;;;;;;4952267;29;20075;-82
2021/06/20 00:57:01;;;;;;;1.40;1.30;;;20.80;99.90;;;;;;4935236;29;20587;-78
2021/06/20 00:59:30;;;;;;;2.25;2.05;;;20.80;99.90;;;;;;4952033;29;20042;-77
2021/06/20 01:01:56;;;;;;;2.45;2.03;;;20.70;99.90;;;;;;4952752;29;20027;-83
2021/06/20 01:04:22;;;;;;;1.85;1.75;;;20.70;99.90;;;;;;4952565;29;20107;-82
2021/06/20 01:06:48;;;;;;;1.13;1.10;;;20.70;99.90;;;;;;4951957;29;20090;-81
2021/06/20 01:09:16;;;;;;;1.40;1.30;;;20.80;99.90;;;;;;4952085;29;20023;-82
2021/06/20 01:11:42;;;;;;;1.40;1.30;;;20.80;99.90;;;;;;4935330;29;20391;-82
2021/06/20 01:14:08;;;;;;;1.20;1.13;;;20.60;99.90;;;;;;4934558;28;20169;-75
2021/06/20 01:16:33;;;;;;;1.25;1.20;;;20.60;99.90;;;;;;4935339;29;20379;-82
2021/06/20 01:18:59;;;;;;;1.40;1.30;;;20.40;99.90;;;;;;4951850;29;20040;-79
2021/06/20 01:21:25;;;;;;;1.10;1.08;;;20.50;99.90;;;;;;4952266;29;20131;-81
2021/06/20 01:23:51;;;;;;;1.55;1.45;;;20.50;99.90;;;;;;4951922;29;20031;-83
2021/06/20 01:26:16;;;;;;;1.10;1.10;;;20.30;99.90;;;;;;4952442;29;20063;-84
2021/06/20 01:29:01;;;;;;;1.90;1.80;;;20.10;99.90;;;;;;4952269;29;20499;-82
2021/06/20 01:31:30;;;;;;;1.23;1.15;;;20.20;99.90;;;;;;4952550;29;20027;-84
2021/06/20 01:33:56;;;;;;;2.25;2.08;;;20.40;99.90;;;;;;4951844;29;20023;-82
2021/06/20 01:36:22;;;;;;;1.30;1.20;;;20.40;99.90;;;;;;4934557;29;20062;-76
2021/06/20 01:38:48;;;;;;;1.30;1.20;;;20.50;99.90;;;;;;4951860;29;20484;-85
2021/06/20 01:41:14;;;;;;;2.10;1.75;;;20.50;99.90;;;;;;4934819;29;20507;-83
2021/06/20 01:43:39;;;;;;;1.52;1.42;;;20.50;99.90;;;;;;4951730;29;20066;-83
2021/06/20 01:46:05;;;;;;;1.52;1.42;;;20.50;99.90;;;;;;4952066;29;20035;-84
2021/06/20 01:48:31;;;;;;;6.50;2.45;;;20.50;99.90;;;;;;4934963;29;20031;-84
2021/06/20 01:50:57;;;;;;;1.02;1.02;;;20.50;99.90;;;;;;4950358;28;20098;-83
2021/06/20 01:53:23;;;;;;;1.45;1.35;;;20.30;99.90;;;;;;4955367;29;20416;-82
2021/06/20 01:55:49;;;;;;;1.17;1.10;;;20.30;99.90;;;;;;4938467;29;20035;-80
2021/06/20 01:58:18;;;;;;;1.10;1.10;;;20.40;99.90;;;;;;4954783;29;20036;-82
2021/06/20 02:00:47;;;;;;;1.55;1.45;;;20.50;99.90;;;;;;4955471;29;20023;-81
2021/06/20 02:03:18;;;;;;;1.30;1.20;;;20.40;99.90;;;;;;4955275;29;20019;-82
2021/06/20 02:05:46;;;;;;;1.17;1.10;;;20.40;99.90;;;;;;4955971;29;20098;-86
2021/06/20 02:08:13;;;;;;;1.55;1.45;;;20.40;99.90;;;;;;4955298;29;20015;-80
2021/06/20 02:10:42;;;;;;;1.00;1.00;;;19.80;99.90;;;;;;4955558;29;20031;-82
2021/06/20 02:13:07;;;;;;;1.10;1.10;;;19.80;99.90;;;;;;4938193;29;20118;-80
2021/06/20 02:15:34;;;;;;;1.00;1.00;;;19.90;99.90;;;;;;4955422;29;20110;-80
2021/06/20 02:17:59;;;;;;;1.27;1.17;;;20.10;99.90;;;;;;4937592;29;20031;-79
2021/06/20 02:20:25;;;;;;;1.98;1.88;;;20.00;99.90;;;;;;4955251;29;20034;-81
2021/06/20 02:22:52;;;;;;;1.70;1.60;;;20.00;99.90;;;;;;4955210;29;20031;-79
2021/06/20 02:25:19;;;;;;;1.30;1.20;;;19.90;99.90;;;;;;4955382;29;20364;-81
2021/06/20 02:27:47;;;;;;;1.10;1.10;;;19.90;99.90;;;;;;4954753;29;20058;-82
2021/06/20 02:30:14;;;;;;;1.00;1.00;;;19.90;99.90;;;;;;4937934;29;20055;-78
2021/06/20 02:32:41;;;;;;;1.60;1.50;;;19.90;99.90;;;;;;4954909;29;20471;-80
2021/06/20 02:35:09;;;;;;;1.05;1.05;;;20.00;99.90;;;;;;4954743;28;20424;-83
2021/06/20 02:37:35;;;;;;;1.83;1.58;;;20.00;99.90;;;;;;4954372;29;20086;-79
2021/06/20 02:40:01;;;;;;;1.00;1.00;;;19.80;99.90;;;;;;4954293;29;20045;-82
2021/06/20 02:42:27;;;;;;;1.00;1.00;;;19.90;99.90;;;;;;4918560;29;20023;-82
2021/06/20 02:44:53;;;;;;;1.52;1.42;;;20.00;99.90;;;;;;4918000;29;20452;-78
2021/06/20 02:47:19;;;;;;;1.73;1.63;;;20.00;99.90;;;;;;4935618;29;20055;-83
2021/06/20 02:49:45;;;;;;;1.73;1.63;;;20.00;99.90;;;;;;4935755;29;20361;-79
2021/06/20 02:52:14;;;;;;;4.13;1.98;;;20.00;99.90;;;;;;4935347;29;20036;-79
2021/06/20 02:54:51;;;;;;;1.48;1.38;;;20.00;99.90;;;;;;4935251;29;20016;-84
2021/06/20 02:57:22;;;;;;;1.30;1.20;;;20.00;99.90;;;;;;4935243;29;20032;-81
2021/06/20 02:59:49;;;;;;;1.40;1.30;;;20.00;99.90;;;;;;4935046;29;20067;-82
2021/06/20 03:02:16;;;;;;;8.90;2.28;;;20.00;99.90;;;;;;4934504;29;20471;-81
2021/06/20 03:04:43;;;;;;;1.38;1.27;;;19.90;99.90;;;;;;4934775;29;20036;-82
2021/06/20 03:07:09;;;;;;;1.70;1.60;;;19.90;99.90;;;;;;4918161;29;20046;-82
2021/06/20 03:09:35;;;;;;;1.30;1.20;;;19.90;99.90;;;;;;4935159;29;20138;-78
2021/06/20 03:12:02;;;;;;;1.02;1.02;;;19.90;99.90;;;;;;4935286;29;20060;-82
2021/06/20 03:14:28;;;;;;;3.42;3.13;;;19.90;99.90;;;;;;4934694;29;20136;-80
2021/06/20 03:16:54;;;;;;;1.67;1.58;;;19.90;99.90;;;;;;4934939;29;20023;-82
2021/06/20 03:19:20;;;;;;;1.30;1.20;;;19.90;99.90;;;;;;4935253;29;20034;-83
2021/06/20 03:21:46;;;;;;;1.25;1.15;;;20.00;99.90;;;;;;4935332;29;20028;-82
2021/06/20 03:24:11;;;;;;;2.45;2.22;;;20.10;99.90;;;;;;4935183;29;20379;-77
2021/06/20 03:26:37;;;;;;;1.40;1.30;;;20.10;99.90;;;;;;4917611;29;20039;-80
2021/06/20 03:29:04;;;;;;;1.75;1.65;;;20.10;99.90;;;;;;4934840;29;20031;-84
2021/06/20 03:31:30;;;;;;;1.30;1.20;;;20.00;99.90;;;;;;4934882;29;20023;-85
2021/06/20 03:33:58;;;;;;;1.48;1.38;;;20.00;99.90;;;;;;4917423;29;20054;-76
2021/06/20 03:36:25;;;;;;;1.10;1.10;;;20.10;99.90;;;;;;4951370;29;20051;-85
2021/06/20 03:38:51;;;;;;;1.02;1.02;;;20.00;99.90;;;;;;4936854;29;20074;-83
2021/06/20 03:41:17;;;;;;;1.88;1.77;;;20.00;99.90;;;;;;4944745;29;20035;-81
2021/06/20 03:43:43;;;;;;;2.58;2.38;;;20.00;99.90;;;;;;4934436;29;20027;-85
2021/06/20 03:46:10;;;;;;;1.02;1.02;;;20.10;99.90;;;;;;4934223;29;20031;-83
2021/06/20 03:48:37;;;;;;;2.05;1.85;;;20.00;99.90;;;;;;4917448;29;20233;-80
2021/06/20 03:51:04;;;;;;;1.30;1.20;;;20.10;99.90;;;;;;4934299;29;20035;-83
2021/06/20 03:53:30;;;;;;;1.33;1.23;;;20.10;99.90;;;;;;4934177;29;20380;-82
2021/06/20 03:55:56;;;;;;;1.40;1.30;;;20.00;99.90;;;;;;4917149;29;20510;-80
2021/06/20 03:58:22;;;;;;;1.30;1.20;;;19.80;99.90;;;;;;4934104;29;20027;-82
2021/06/20 04:00:48;;;;;;;2.20;2.00;;;19.80;99.90;;;;;;4934207;29;20059;-80
2021/06/20 04:03:14;;;;;;;1.30;1.20;;;19.80;99.90;;;;;;4934379;29;20075;-87
2021/06/20 04:05:40;;;;;;;3.20;2.30;;;19.90;99.90;;;;;;4934361;29;20051;-84
2021/06/20 04:08:06;;;;;;;2.70;2.45;;;19.80;99.90;;;;;;4934158;29;20507;-85
2021/06/20 04:10:32;;;;;;;1.40;1.30;;;19.90;99.90;;;;;;4934408;29;20035;-83
2021/06/20 04:12:59;;;;;;;1.20;1.15;;;19.50;99.90;;;;;;4933818;29;20027;-80
2021/06/20 04:15:25;;;;;;;1.45;1.35;;;19.80;99.90;;;;;;4916831;29;20027;-83
2021/06/20 04:17:51;;;;;;;5.30;3.83;;;20.00;99.90;;;;;;4933841;29;20043;-83
2021/06/20 04:20:17;;;;;;;1.33;1.23;;;20.10;99.90;;;;;;4934289;29;20035;-84
2021/06/20 04:22:43;;;;;;;1.60;1.45;;;20.10;99.90;;;;;;4933811;29;20492;-86
2021/06/20 04:25:14;;;;;;;2.25;2.05;;;20.10;99.90;;;;;;4917243;29;20047;-82
2021/06/20 04:27:45;;;;;;;1.30;1.20;;;20.20;99.90;;;;;;4933783;29;20019;-82
2021/06/20 04:30:13;;;;;;;1.58;1.48;;;20.20;99.90;;;;;;4933565;29;20027;-83
2021/06/20 04:32:40;;;;;;;1.77;1.67;;;20.10;99.90;;;;;;4933824;29;20031;-81
2021/06/20 04:35:06;;;;;;;1.60;1.50;;;20.10;99.90;;;;;;4940164;28;20107;-84
2021/06/20 04:37:32;;;;;;;1.75;1.63;;;20.20;99.90;;;;;;4952444;29;20468;-82
2021/06/20 04:39:58;;;;;;;1.25;1.15;;;20.20;99.90;;;;;;4952658;29;20094;-82
2021/06/20 04:42:32;;;;;;;1.15;1.10;;;20.30;99.90;;;;;;4952305;29;20106;-83
2021/06/20 04:44:59;;;;;;;3.10;1.40;;;20.30;99.90;;;;;;4953041;29;20138;-80
2021/06/20 04:47:27;;;;;;;1.20;1.10;;;20.30;99.90;;;;;;4952562;29;20500;-80
2021/06/20 04:49:53;;;;;;;1.10;1.10;;;20.30;99.90;;;;;;4935106;29;20031;-82
2021/06/20 04:52:20;;;;;;;1.55;1.45;;;20.40;99.90;;;;;;4952637;29;20098;-83
2021/06/20 04:54:54;;;;;;;8.52;3.13;;;20.20;99.90;;;;;;4935456;29;20486;-79
2021/06/20 04:57:28;;;;;;;1.08;1.08;;;20.30;99.90;;;;;;4952225;29;20042;-78
2021/06/20 04:59:57;;;;;;;1.00;1.00;;;20.30;99.90;;;;;;4952653;29;20019;-80
2021/06/20 05:02:24;;;;;;;0.93;0.90;;;20.40;99.90;;;;;;4952483;29;20047;-80
2021/06/20 05:04:50;;;;;;;0.93;0.93;;;20.50;99.90;;;;;;4935009;29;20351;-84
2021/06/20 05:07:16;;;;;;;1.10;1.02;;;20.50;99.90;;;;;;4952464;29;20480;-80
2021/06/20 05:09:42;;;;;;;0.90;0.90;;;20.60;99.90;;;;;;4952377;29;20106;-82
2021/06/20 05:12:09;;;;;;;1.00;1.00;;;20.60;99.90;;;;;;4952502;29;20118;-82
2021/06/20 05:14:36;;;;;;;1.88;1.77;;;20.60;99.90;;;;;;4952233;28;20016;-83
2021/06/20 05:17:03;;;;;;;1.00;1.00;;;20.40;99.90;;;;;;4935220;29;20031;-76
2021/06/20 05:19:28;;;;;;;1.35;1.25;;;20.10;99.90;;;;;;4952185;28;20042;-82
2021/06/20 05:21:55;;;;;;;2.22;1.70;;;20.20;99.90;;;;;;4935202;29;20031;-78
2021/06/20 05:24:22;;;;;;;2.65;2.42;;;20.00;99.90;;;;;;4952137;29;20027;-75
2021/06/20 05:26:48;;;;;;;1.67;1.58;;;19.80;99.90;;;;;;4938123;29;20030;-82
2021/06/20 05:29:13;;;;;;;1.80;1.70;;;19.70;99.90;;;;;;4938733;29;20031;-84
2021/06/20 05:31:39;;;;;;;1.55;1.45;;;19.70;99.90;;;;;;4938661;29;20023;-79
2021/06/20 05:34:05;;;;;;;2.13;2.03;;;19.90;99.90;;;;;;4955673;29;20030;-81
2021/06/20 05:36:31;;;;;;;1.80;1.70;;;20.20;99.90;;;;;;4955853;29;20051;-80
2021/06/20 05:38:56;;;;;;;3.13;2.85;;;20.50;99.90;;;;;;4938785;29;20075;-83
2021/06/20 05:41:23;;;;;;;1.10;1.05;;;20.80;99.90;;;;;;4944358;29;20524;-80
2021/06/20 05:43:49;;;;;;;3.90;3.60;;;21.00;99.90;;;;;;4917355;29;20059;-83
2021/06/20 05:46:15;;;;;;;1.50;1.40;;;21.30;99.90;;;;;;4900499;29;20388;-81
2021/06/20 05:48:40;;;;;;;1.80;1.70;;;21.50;99.90;;;;;;4917685;29;20384;-85
2021/06/20 05:51:06;;;;;;;1.88;1.77;;;21.70;99.90;;;;;;4918063;29;20528;-81
2021/06/20 05:53:33;;;;;;;1.48;1.38;;;21.70;99.90;;;;;;4917385;29;20079;-84
2021/06/20 05:55:59;;;;;;;1.10;1.05;;;21.70;99.90;;;;;;4917434;29;20039;-80
2021/06/20 05:58:24;;;;;;;2.08;1.95;;;21.80;99.90;;;;;;4917415;29;20020;-82
2021/06/20 06:00:50;;;;;;;1.38;1.30;;;22.00;99.90;;;;;;4917477;29;20103;-82
2021/06/20 06:03:16;;;;;;;1.55;1.45;;;22.10;99.90;;;;;;4900211;29;20051;-82
2021/06/20 06:05:42;;;;;;;1.02;1.02;;;22.20;99.90;;;;;;4917696;29;20528;-84
2021/06/20 06:08:07;;;;;;;0.90;0.90;;;22.30;99.90;;;;;;4916679;29;20099;-80
2021/06/20 06:10:34;;;;;;;1.35;1.25;;;22.20;99.90;;;;;;4917258;29;20496;-84
2021/06/20 06:13:00;;;;;;;1.00;1.00;;;22.30;99.90;;;;;;4917142;29;20028;-80
2021/06/20 06:15:27;;;;;;;1.00;0.93;;;22.50;99.90;;;;;;4916796;29;20029;-78
2021/06/20 06:17:53;;;;;;;1.88;1.75;;;22.50;99.90;;;;;;4899800;29;20032;-83
2021/06/20 06:20:20;;;;;;;1.42;1.33;;;22.60;99.90;;;;;;4900110;29;20039;-81
2021/06/20 06:22:46;;;;;;;1.23;1.13;;;22.70;99.90;;;;;;4916825;29;20515;-82
2021/06/20 06:25:12;;;;;;;0.90;0.90;;;22.50;99.90;;;;;;4917000;29;20140;-83
2021/06/20 06:27:40;;;;;;;0.88;0.88;;;22.40;99.90;;;;;;4899921;29;20106;-81
2021/06/20 06:30:09;;;;;;;1.38;1.27;;;22.40;99.90;;;;;;4916944;29;20021;-83
2021/06/20 06:32:35;;;;;;;3.03;2.03;;;22.40;99.90;;;;;;4884501;29;20036;-80
2021/06/20 06:35:01;;;;;;;2.88;1.85;;;22.40;99.90;;;;;;4922630;29;20059;-82
2021/06/20 06:37:26;;;;;;;1.35;1.25;;;22.50;99.90;;;;;;4917269;29;20056;-82
2021/06/20 06:39:52;;;;;;;1.63;1.15;;;22.70;99.90;;;;;;4918605;29;20384;-85
2021/06/20 06:42:18;;;;;;;4.78;1.67;;;22.80;99.90;;;;;;4948218;29;20502;-82
2021/06/20 06:44:44;;;;;;;1.63;1.30;;;22.60;99.90;;;;;;4954546;29;20431;-81
2021/06/20 06:47:09;;;;;;;1.70;1.38;;;22.80;99.90;;;;;;4954757;29;20464;-82
2021/06/20 06:49:35;;;;;;;1.52;1.13;;;22.70;99.90;;;;;;4937560;29;20031;-82
2021/06/20 06:52:02;;;;;;;0.80;0.80;;;22.80;99.90;;;;;;4954522;29;20034;-83
2021/06/20 06:54:27;;;;;;;1.20;1.13;;;22.80;99.90;;;;;;4954638;29;20019;-81
2021/06/20 06:56:53;;;;;;;1.95;1.58;;;22.80;99.90;;;;;;4953500;29;20054;-82
2021/06/20 06:59:19;;;;;;;11.15;1.85;;;22.80;99.90;;;;;;4953954;29;20090;-81
2021/06/20 07:01:45;;;;;;;4.65;1.20;;;22.70;99.90;;;;;;4937078;29;20032;-85
2021/06/20 07:04:10;;;;;;;1.65;1.55;;;22.80;99.90;;;;;;4937018;29;20386;-83
2021/06/20 07:06:36;;;;;;;1.50;1.40;;;22.90;99.90;;;;;;4936936;29;20515;-84
2021/06/20 07:09:03;;;;;;;1.30;1.20;;;23.20;99.90;;;;;;4954016;29;20023;-84
2021/06/20 07:11:29;;;;;;;1.55;1.05;;;23.00;99.90;;;;;;4954284;29;20023;-80
2021/06/20 07:13:55;;;;;;;1.00;0.98;;;23.20;99.90;;;;;;4923966;28;20097;-81
2021/06/20 07:16:20;;;;;;;0.93;0.90;;;23.30;99.90;;;;;;4947307;28;20027;-82
2021/06/20 07:18:46;;;;;;;1.25;1.15;;;23.30;99.90;;;;;;4966247;28;20027;-83
2021/06/20 07:21:12;;;;;;;0.77;0.77;;;23.40;99.90;;;;;;4951565;28;20467;-80
2021/06/20 07:23:38;;;;;;;2.20;1.48;;;23.50;99.90;;;;;;4952003;28;20603;-79
2021/06/20 07:26:03;;;;;;;1.05;0.95;;;23.50;99.90;;;;;;4951513;28;20034;-77
2021/06/20 07:28:29;;;;;;;0.77;0.77;;;23.50;99.90;;;;;;4925542;28;20782;-77
2021/06/20 07:30:55;;;;;;;1.10;1.00;;;23.30;99.90;;;;;;4944777;28;20031;-79
2021/06/20 07:33:22;;;;;;;0.73;0.73;;;23.40;99.90;;;;;;4951269;28;20030;-83
2021/06/20 07:35:57;;;;;;;1.13;1.02;;;23.50;99.90;;;;;;4942866;29;20055;-81
2021/06/20 07:38:23;;;;;;;1.35;1.25;;;23.40;99.90;;;;;;4932346;29;20110;-80
2021/06/20 07:40:49;;;;;;;1.65;1.55;;;23.40;99.90;;;;;;4933820;29;20034;-79
2021/06/20 07:43:15;;;;;;;0.73;0.73;;;23.50;99.90;;;;;;4933468;29;20024;-81
2021/06/20 07:45:41;;;;;;;0.85;0.85;;;23.60;99.90;;;;;;4925284;29;20055;-81
2021/06/20 07:48:07;;;;;;;1.15;1.05;;;23.80;99.90;;;;;;4916366;29;20027;-81
2021/06/20 07:50:35;;;;;;;0.98;0.88;;;23.80;99.90;;;;;;4914757;29;20038;-80
2021/06/20 07:53:01;;;;;;;0.70;0.70;;;23.80;99.90;;;;;;4915240;29;20499;-78
2021/06/20 07:55:27;;;;;;;0.90;0.90;;;23.90;99.90;;;;;;4939697;29;20403;-77
2021/06/20 07:57:53;;;;;;;1.35;1.10;;;23.90;99.90;;;;;;4949324;29;20480;-78
2021/06/20 08:00:19;;;;;;;0.60;0.60;;;24.00;99.90;;;;;;4933085;29;20031;-79
2021/06/20 08:02:46;;;;;;;0.80;0.80;;;23.80;99.90;;;;;;4937711;29;20023;-79
2021/06/20 08:05:15;;;;;;;0.70;0.70;;;23.80;99.90;;;;;;4935586;29;20473;-78
2021/06/20 08:07:41;;;;;;;1.48;1.35;;;24.10;99.90;;;;;;4952425;29;20035;-77
2021/06/20 08:10:07;;;;;;;1.13;1.02;;;24.30;99.90;;;;;;4935868;29;20079;-82
2021/06/20 08:12:33;;;;;;;1.08;1.02;;;24.30;99.90;;;;;;4952052;29;20027;-83
2021/06/20 08:14:59;;;;;;;1.55;1.45;;;24.30;99.90;;;;;;4930300;29;20436;-80
2021/06/20 08:17:25;;;;;;;0.93;0.85;;;24.40;99.90;;;;;;4949385;29;20023;-81
2021/06/20 08:19:51;;;;;;;0.60;0.60;;;24.50;99.90;;;;;;4940969;29;20039;-78
2021/06/20 08:22:23;;;;;;;1.15;1.05;;;24.30;99.90;;;;;;4947718;29;20035;-83
2021/06/20 08:24:50;;;;;;;1.15;1.05;;;24.50;99.90;;;;;;4950067;28;20025;-82
2021/06/20 08:27:16;;;;;;;0.80;0.80;;;24.70;99.90;;;;;;4950597;29;20054;-80
2021/06/20 08:29:42;;;;;;;1.35;1.25;;;24.90;99.90;;;;;;4916418;29;20055;-82
2021/06/20 08:32:08;;;;;;;1.00;1.00;;;24.70;99.90;;;;;;4932986;29;20451;-84
2021/06/20 08:34:34;;;;;;;1.50;1.00;;;24.80;99.90;;;;;;4934633;28;20040;-82
2021/06/20 08:37:02;;;;;;;1.65;1.55;;;25.00;99.90;;;;;;4951560;29;20042;-82
2021/06/20 08:39:28;;;;;;;2.30;2.10;;;25.00;99.90;;;;;;4950422;29;20026;-82
2021/06/20 08:41:57;;;;;;;1.20;1.13;;;25.10;99.90;;;;;;4928785;29;20019;-78
2021/06/20 08:44:30;;;;;;;1.48;1.38;;;25.30;99.90;;;;;;4943035;28;20029;-77
2021/06/20 08:46:57;;;;;;;0.60;0.60;;;25.40;99.90;;;;;;4946875;29;20378;-77
2021/06/20 08:49:29;;;;;;;0.77;0.75;;;25.50;99.90;;;;;;4949730;29;20042;-84
2021/06/20 08:51:59;;;;;;;0.60;0.60;;;25.60;99.90;;;;;;4950356;29;20032;-75
2021/06/20 08:54:26;;;;;;;2.05;1.95;;;25.50;99.90;;;;;;4951918;29;20019;-74
2021/06/20 08:56:52;;;;;;;1.98;1.77;;;25.60;99.90;;;;;;4945953;29;20063;-76
2021/06/20 08:59:23;;;;;;;1.35;1.25;;;25.60;99.90;;;;;;4962119;28;20022;-81
2021/06/20 09:01:50;;;;;;;;;;;25.60;99.90;;;;;;4969225;28;20045;-80
2021/06/20 09:04:24;;;;;;;0.52;0.52;;;25.50;99.90;;;;;;4967183;28;19933;-83
2021/06/20 09:06:49;;;;;;;1.02;0.98;;;25.60;99.90;;;;;;4953709;28;20038;-83
2021/06/20 09:09:29;;;;;;;2.83;1.95;;;25.90;99.90;;;;;;4971280;28;20031;-84
2021/06/20 09:12:06;;;;;;;0.80;0.80;;;26.10;99.90;;;;;;4971119;28;20030;-83
2021/06/20 09:14:42;;;;;;;1.23;0.95;;;26.30;99.90;;;;;;4971090;28;20031;-84
2021/06/20 09:17:07;;;;;;;0.80;0.80;;;26.10;99.90;;;;;;4971078;28;20069;-80
2021/06/20 09:19:35;;;;;;;2.60;1.60;;;26.30;99.90;;;;;;4953962;28;20054;-85
2021/06/20 09:22:05;;;;;;;1.15;0.98;;;26.50;99.90;;;;;;4971639;28;20097;-86
2021/06/20 09:24:31;;;;;;;1.42;1.15;;;26.40;99.90;;;;;;4971453;28;20110;-84
2021/06/20 09:26:59;;;;;;;0.50;0.50;;;26.40;99.90;;;;;;4971581;28;20386;-85
2021/06/20 09:29:29;;;;;;;1.40;1.25;;;26.60;99.90;;;;;;4971258;28;20026;-80
2021/06/20 09:31:57;;;;;;;0.50;0.50;;;26.90;99.90;;;;;;4971168;28;20117;-80
2021/06/20 09:34:23;;;;;;;0.60;0.60;;;27.20;99.90;;;;;;4953440;28;20031;-78
2021/06/20 09:37:03;;;;;;;1.80;1.42;;;27.50;99.90;;;;;;4954041;28;20057;-77
2021/06/20 09:39:30;;;;;;;1.05;0.95;;;27.70;99.90;;;;;;4971206;28;20031;-78
2021/06/20 09:41:57;;;;;;;1.17;1.08;;;27.90;99.90;;;;;;4966341;28;20027;-77
2021/06/20 09:44:47;;;;;;;0.68;0.68;;;28.00;99.90;;;;;;4952094;29;20027;-83
2021/06/20 09:47:22;;;;;;;1.48;1.08;;;28.10;99.90;;;;;;4951998;29;20024;-83
2021/06/20 09:49:51;;;;;;;3.70;1.90;;;28.10;99.90;;;;;;4934573;29;20043;-83
2021/06/20 09:52:34;;;;;;;2.28;1.73;;;28.30;99.90;;;;;;4951850;29;20031;-79
2021/06/20 09:55:03;;;;;;;1.15;1.00;;;28.30;99.90;;;;;;4950313;29;20431;-80
2021/06/20 09:57:45;;;;;;;0.50;0.50;;;28.20;99.90;;;;;;4934348;29;20035;-82
2021/06/20 10:00:13;;;;;;;0.85;0.63;;;28.40;99.90;;;;;;4951331;29;20023;-81
2021/06/20 10:02:40;;;;;;;0.47;0.47;;;28.60;99.90;;;;;;4951756;29;20411;-79
2021/06/20 10:05:11;;;;;;;0.75;0.75;;;28.70;99.90;;;;;;4952101;29;20031;-81
2021/06/20 10:07:37;;;;;;;2.47;1.50;;;28.50;99.90;;;;;;4951673;29;20042;-78
2021/06/20 10:10:06;;;;;;;0.60;0.60;;;28.30;99.90;;;;;;4951707;29;20023;-77
2021/06/20 10:12:32;;;;;;;0.75;0.75;;;28.50;99.90;;;;;;4954093;28;20023;-77
2021/06/20 10:15:00;;;;;;;1.67;1.13;;;28.70;99.90;;;;;;4955078;28;20035;-80
2021/06/20 10:17:31;;;;;;;5.68;2.60;;;28.40;99.90;;;;;;4955230;29;20032;-82
2021/06/20 10:20:05;;;;;;;1.30;1.10;;;28.20;99.90;;;;;;4937784;29;20031;-81
2021/06/20 10:22:50;;;;;;;2.00;1.55;;;28.50;99.90;;;;;;4955054;29;20434;-82
2021/06/20 10:25:29;;;;;;;1.88;1.65;;;28.80;99.90;;;;;;4937735;29;20078;-81
2021/06/20 10:28:14;;;;;;;2.00;1.80;;;29.10;99.90;;;;;;4955114;29;20093;-83
2021/06/20 10:30:46;;;;;;;4.40;2.63;;;29.60;99.90;;;;;;4940587;29;20087;-83
2021/06/20 10:33:23;;;;;;;1.48;1.23;;;29.80;99.30;;;;;;4936081;29;20028;-78
2021/06/20 10:36:01;;;;;;;5.90;3.00;;;29.70;97.80;;;;;;4915824;29;20119;-81
2021/06/20 10:38:37;;;;;;;3.03;1.67;;;28.80;99.70;;;;;;4935815;29;20023;-81
2021/06/20 10:41:03;;;;;;;0.77;0.77;;;28.40;99.90;;;;;;4936354;29;20047;-77
2021/06/20 10:43:29;;;;;;;0.98;0.90;;;28.70;99.90;;;;;;4952173;29;20032;-85
2021/06/20 10:45:54;;;;;;;0.85;0.85;;;28.60;99.90;;;;;;4955347;29;20375;-84
2021/06/20 10:48:37;;;;;;;0.57;0.57;;;28.40;99.90;;;;;;4955301;29;20549;-81
2021/06/20 10:51:04;;;;;;;0.77;0.75;;;28.30;99.90;;;;;;4954477;29;20035;-83
2021/06/20 10:53:40;;;;;;;1.23;1.00;;;28.40;99.90;;;;;;4955503;29;20034;-80
2021/06/20 10:56:06;;;;;;;0.60;0.60;;;28.00;99.90;;;;;;4937438;29;20035;-80
2021/06/20 10:58:41;;;;;;;1.80;1.67;;;28.00;99.90;;;;;;4943933;29;20733;-83
2021/06/20 11:01:08;;;;;;;1.75;1.33;;;28.20;99.90;;;;;;4928036;29;20019;-82
2021/06/20 11:03:35;;;;;;;0.90;0.85;;;28.20;99.90;;;;;;4944064;29;20086;-83
2021/06/20 11:06:10;;;;;;;0.65;0.55;;;28.50;99.90;;;;;;4943910;29;20500;-83
2021/06/20 11:08:57;;;;;;;0.80;0.80;;;29.00;99.90;;;;;;4945037;29;20034;-83
2021/06/20 11:11:25;;;;;;;2.05;1.05;;;29.50;99.50;;;;;;4928025;29;20027;-82
2021/06/20 11:13:57;;;;;;;0.52;0.52;;;29.10;99.10;;;;;;4940130;29;20031;-88
2021/06/20 11:16:45;;;;;;;2.00;1.42;;;29.20;99.30;;;;;;4935503;29;20040;-81
2021/06/20 11:19:15;;;;;;;0.95;0.80;;;29.50;99.80;;;;;;4935260;29;20038;-88
2021/06/20 11:21:43;;;;;;;0.70;0.65;;;29.70;98.50;;;;;;4935470;29;20396;-86
2021/06/20 11:24:12;;;;;;;1.42;1.33;;;29.90;98.40;;;;;;4917827;29;20038;-81
2021/06/20 11:26:38;;;;;;;2.10;1.47;;;30.20;97.20;;;;;;4935211;29;20028;-79
2021/06/20 11:29:09;;;;;;;0.73;0.68;;;29.80;97.00;;;;;;4918375;29;20032;-82
2021/06/20 11:32:13;;;;;;;1.75;0.75;;;29.40;98.10;;;;;;4918616;29;20091;-86
2021/06/20 11:34:46;;;;;;;0.77;0.65;;;29.20;98.70;;;;;;4908242;29;20043;-85
2021/06/20 11:37:20;;;;;;;0.80;0.80;;;28.90;99.30;;;;;;4943947;29;20063;-81
2021/06/20 11:39:48;;;;;;;1.95;1.58;;;28.60;99.30;;;;;;4937530;29;20453;-86
2021/06/20 11:42:33;;;;;;;2.40;2.13;;;28.70;99.70;;;;;;4950943;29;20024;-82
2021/06/20 11:45:01;;;;;;;1.83;1.63;;;29.00;99.50;;;;;;4955273;29;20371;-85
2021/06/20 11:47:29;;;;;;;1.55;1.15;;;29.50;98.70;;;;;;4937188;29;20046;-85
2021/06/20 11:49:55;;;;;;;9.55;1.40;;;29.50;97.70;;;;;;4954220;29;20042;-83
2021/06/20 11:52:24;;;;;;;5.40;2.33;;;29.40;97.30;;;;;;4954174;29;20383;-80
2021/06/20 11:55:04;;;;;;;0.93;0.77;;;29.30;98.10;;;;;;4937288;29;20494;-81
2021/06/20 11:57:33;;;;;;;1.83;1.20;;;29.20;98.20;;;;;;4953614;29;20047;-83
2021/06/20 12:00:28;;;;;;;0.75;0.70;;;29.10;97.80;;;;;;4954077;29;20039;-81
2021/06/20 12:03:05;;;;;;;0.40;0.40;;;29.20;97.50;;;;;;4921547;29;20035;-84
2021/06/20 12:05:40;;;;;;;0.75;0.57;;;29.20;97.30;;;;;;4934268;29;20070;-80
2021/06/20 12:08:06;;;;;;;1.48;1.08;;;29.90;96.50;;;;;;4935180;29;20023;-80
2021/06/20 12:10:33;;;;;;;0.60;0.60;;;29.90;97.10;;;;;;4934395;29;20028;-77
2021/06/20 12:13:01;;;;;;;0.45;0.45;;;30.10;95.70;;;;;;4932359;29;20031;-77
2021/06/20 12:15:28;;;;;;;1.23;1.13;;;30.20;95.30;;;;;;4932370;29;20463;-77
2021/06/20 12:17:54;;;;;;;0.52;0.52;;;30.50;94.60;;;;;;4931527;29;20660;-77
2021/06/20 12:20:36;;;;;;;0.63;0.63;;;30.80;94.30;;;;;;4933038;29;20087;-77
2021/06/20 12:23:03;;;;;;;1.88;1.40;;;30.80;93.00;;;;;;4933212;29;20035;-77
2021/06/20 12:25:29;;;;;;;0.70;0.70;;;30.40;92.90;;;;;;4916709;29;20039;-76
2021/06/20 12:27:54;;;;;;;2.40;1.38;;;30.90;92.70;;;;;;4933919;29;20027;-77
2021/06/20 12:30:25;;;;;;;1.15;1.05;;;31.20;88.80;;;;;;4934560;29;20020;-79
2021/06/20 12:32:51;;;;;;;1.23;0.77;;;31.20;88.40;;;;;;4934616;29;20031;-77
2021/06/20 12:35:25;;;;;;;1.50;1.08;;;30.90;88.00;;;;;;4933281;29;20043;-78
2021/06/20 12:37:53;;;;;;;0.65;0.65;;;31.20;87.40;;;;;;4933901;29;20046;-79
2021/06/20 12:40:21;;;;;;;1.10;0.98;;;31.30;87.60;;;;;;4934409;29;20023;-77
2021/06/20 12:42:50;;;;;;;0.40;0.40;;;31.40;86.50;;;;;;4941779;29;20090;-78
2021/06/20 12:45:26;;;;;;;1.13;0.80;;;31.70;81.80;;;;;;4953472;29;20047;-79
2021/06/20 12:47:58;;;;;;;0.60;0.60;;;31.70;79.80;;;;;;4935746;29;20073;-76
2021/06/20 12:50:34;;;;;;;0.55;0.47;;;31.60;77.00;;;;;;4953589;28;20082;-75
2021/06/20 12:53:01;;;;;;;0.98;0.77;;;31.50;76.80;;;;;;4953068;29;20033;-78